Time;durP1;ratioP1;P1;durP2;ratioP2;P2;SDS_P1;SDS_P2;PMS_P1;PMS_P2;Temp;Humidity;BMP_temperature;BMP_pressure;BME280_temperature;BME280_humidity;BME280_pressure;Samples;Min_cycle;Max_cycle;Signal;HPM_P1;HPM_P2
2021/12/16 00:09:02;;;;;;;32.20;24.57;;;10.90;99.90;;;;;;6216374;23;20166;-80
2021/12/16 00:31:23;;;;;;;29.83;22.67;;;11.00;99.90;;;;;;6216097;23;20249;-81
2021/12/16 00:34:02;;;;;;;30.13;22.93;;;11.10;99.90;;;;;;6215799;23;20204;-81
2021/12/16 00:36:31;;;;;;;32.53;23.83;;;11.10;99.90;;;;;;6216205;23;20178;-84
2021/12/16 00:39:01;;;;;;;34.67;23.33;;;11.30;99.90;;;;;;6216032;23;20169;-80
2021/12/16 00:41:29;;;;;;;36.60;22.80;;;11.30;99.90;;;;;;6216072;23;20165;-82
2021/12/16 00:44:06;;;;;;;30.37;23.03;;;11.20;99.90;;;;;;6215794;23;20201;-82
2021/12/16 00:46:59;;;;;;;32.87;23.23;;;11.30;99.90;;;;;;6215610;23;20172;-79
2021/12/16 00:49:40;;;;;;;30.37;22.47;;;11.30;99.90;;;;;;6215938;23;20177;-79
2021/12/16 00:55:14;;;;;;;33.13;27.80;;;11.20;99.90;;;;;;6214393;23;20395;-81
2021/12/16 00:57:43;;;;;;;33.37;24.83;;;11.60;99.90;;;;;;6215755;23;20514;-79
2021/12/16 01:00:15;;;;;;;29.83;23.90;;;11.50;99.90;;;;;;6215496;23;20216;-78
2021/12/16 01:02:56;;;;;;;30.03;22.63;;;11.30;99.90;;;;;;6216310;23;20164;-82
2021/12/16 01:36:10;;;;;;;31.83;23.53;;;11.50;99.90;;;;;;6215245;23;20257;-79
2021/12/16 01:47:25;;;;;;;32.77;23.17;;;11.40;99.90;;;;;;6214418;23;20189;-79
2021/12/16 01:50:02;;;;;;;32.73;23.20;;;11.40;99.90;;;;;;6215149;23;20175;-80
2021/12/16 01:55:19;;;;;;;35.07;24.23;;;11.20;99.90;;;;;;6210865;23;20175;-79
2021/12/16 01:57:50;;;;;;;33.87;23.60;;;11.20;99.90;;;;;;6215135;23;20650;-80
2021/12/16 02:00:26;;;;;;;34.20;24.30;;;11.20;99.90;;;;;;6214965;23;20176;-80
2021/12/16 02:03:00;;;;;;;29.53;23.13;;;11.20;99.90;;;;;;6214973;23;20507;-77
2021/12/16 02:05:50;;;;;;;32.13;23.40;;;11.20;99.90;;;;;;6215300;23;20556;-79
2021/12/16 02:08:24;;;;;;;33.65;28.08;;;11.30;99.90;;;;;;6213686;23;20416;-79
2021/12/16 02:11:06;;;;;;;31.33;23.90;;;11.40;99.90;;;;;;6214616;23;20207;-79
2021/12/16 02:13:48;;;;;;;30.83;23.77;;;11.30;99.90;;;;;;6214888;23;20629;-78
2021/12/16 02:27:33;;;;;;;30.97;23.70;;;11.20;99.90;;;;;;6214832;23;20168;-79
2021/12/16 02:32:52;;;;;;;31.07;23.77;;;11.10;99.90;;;;;;6183515;23;20212;-80
2021/12/16 02:35:31;;;;;;;32.53;23.80;;;11.00;99.90;;;;;;6215304;23;20198;-80
2021/12/16 02:38:00;;;;;;;30.73;24.03;;;11.00;99.90;;;;;;6214650;23;20178;-79
2021/12/16 02:40:28;;;;;;;33.03;22.90;;;11.10;99.90;;;;;;6215156;23;20251;-80
2021/12/16 02:43:00;;;;;;;30.80;23.47;;;11.10;99.90;;;;;;6214428;23;20621;-77
2021/12/16 02:48:32;;;;;;;34.70;24.33;;;10.90;99.90;;;;;;6182257;23;20188;-79
2021/12/16 02:51:04;;;;;;;33.20;24.03;;;10.80;99.90;;;;;;6181967;23;20527;-79
2021/12/16 02:53:36;;;;;;;35.60;24.57;;;11.00;99.90;;;;;;6197885;23;20184;-80
2021/12/16 02:56:04;;;;;;;34.33;25.13;;;11.00;99.90;;;;;;6214486;23;20165;-81
2021/12/16 02:58:31;;;;;;;32.70;24.83;;;11.00;99.90;;;;;;6214659;23;20182;-81
2021/12/16 03:01:06;;;;;;;37.47;23.90;;;11.10;99.90;;;;;;6214375;23;20662;-78
2021/12/16 03:03:35;;;;;;;41.63;25.37;;;11.10;99.90;;;;;;6216217;23;20171;-79
2021/12/16 03:06:03;;;;;;;34.30;23.83;;;11.00;99.90;;;;;;6216379;23;20204;-79
2021/12/16 03:08:31;;;;;;;39.17;24.23;;;11.10;99.90;;;;;;6216723;23;20213;-79
2021/12/16 03:11:16;;;;;;;32.37;23.90;;;11.10;99.90;;;;;;6216667;23;20207;-79
2021/12/16 03:13:56;;;;;;;35.97;23.83;;;11.10;99.90;;;;;;6216499;23;20177;-80
2021/12/16 03:16:31;;;;;;;35.03;25.03;;;11.00;99.90;;;;;;6216891;23;20212;-79
2021/12/16 03:19:11;;;;;;;34.53;24.53;;;10.90;99.90;;;;;;6216775;23;20173;-81
2021/12/16 03:21:43;;;;;;;38.13;28.65;;;11.00;99.90;;;;;;6215281;23;20711;-79
2021/12/16 03:24:39;;;;;;;34.30;25.83;;;11.20;99.90;;;;;;6216641;23;20164;-80
2021/12/16 03:30:28;;;;;;;31.87;23.67;;;10.90;99.90;;;;;;6216531;23;20248;-79
2021/12/16 03:33:19;;;;;;;34.40;24.20;;;10.90;99.90;;;;;;6216850;23;20204;-80
2021/12/16 03:36:03;;;;;;;36.87;24.83;;;11.00;99.90;;;;;;6216041;23;20605;-82
2021/12/16 03:38:31;;;;;;;35.43;24.83;;;11.20;99.90;;;;;;6216609;23;20163;-79
2021/12/16 03:40:58;;;;;;;34.37;25.13;;;11.00;99.90;;;;;;6216380;23;20514;-81
2021/12/16 03:43:27;;;;;;;32.70;22.90;;;11.00;99.90;;;;;;6216603;23;20176;-81
2021/12/16 03:48:51;;;;;;;35.87;25.37;;;11.00;99.90;;;;;;6216684;23;20176;-78
2021/12/16 03:51:22;;;;;;;35.10;24.60;;;11.00;99.90;;;;;;6216427;23;20165;-80
2021/12/16 03:53:51;;;;;;;34.83;24.87;;;11.00;99.90;;;;;;6216474;23;20644;-82
2021/12/16 03:56:19;;;;;;;36.10;24.73;;;11.10;99.90;;;;;;6216417;23;20173;-79
2021/12/16 03:58:48;;;;;;;37.43;25.80;;;11.20;99.90;;;;;;6216464;23;20164;-80
2021/12/16 04:01:20;;;;;;;33.30;24.10;;;11.20;99.90;;;;;;6216025;23;20170;-80
2021/12/16 04:03:49;;;;;;;36.07;24.23;;;11.10;99.90;;;;;;6215990;23;20203;-80
2021/12/16 04:06:17;;;;;;;36.70;25.00;;;11.10;99.90;;;;;;6215823;23;20171;-78
2021/12/16 04:08:44;;;;;;;35.20;24.97;;;11.10;99.90;;;;;;6216156;23;20263;-79
2021/12/16 04:11:19;;;;;;;34.50;25.13;;;11.20;99.90;;;;;;6215961;23;20201;-78
2021/12/16 04:13:56;;;;;;;33.17;25.20;;;11.30;99.90;;;;;;6215007;23;20648;-79
2021/12/16 04:16:27;;;;;;;34.27;24.50;;;11.30;99.90;;;;;;6214459;23;20497;-78
2021/12/16 04:18:54;;;;;;;37.87;24.90;;;11.40;99.90;;;;;;6215816;23;20487;-78
2021/12/16 04:21:21;;;;;;;35.03;25.47;;;11.40;99.90;;;;;;6215320;23;20169;-78
2021/12/16 04:23:50;;;;;;;32.10;25.73;;;11.50;99.90;;;;;;6215793;23;20684;-80
2021/12/16 04:26:17;;;;;;;37.53;26.17;;;11.50;99.90;;;;;;6215781;23;20184;-79
2021/12/16 04:28:44;;;;;;;34.47;25.30;;;11.30;99.90;;;;;;6215662;23;20168;-79
2021/12/16 04:31:13;;;;;;;36.33;25.37;;;11.40;99.90;;;;;;6215832;23;20175;-78
2021/12/16 04:33:41;;;;;;;40.20;27.13;;;11.40;99.90;;;;;;6216171;23;20205;-80
2021/12/16 04:36:11;;;;;;;35.67;28.42;;;11.30;99.90;;;;;;6215749;23;20415;-80
2021/12/16 04:38:40;;;;;;;34.20;25.13;;;11.30;99.90;;;;;;6215641;23;20525;-78
2021/12/16 04:41:11;;;;;;;35.00;25.53;;;11.30;99.90;;;;;;6216356;23;20169;-78
2021/12/16 04:43:40;;;;;;;36.17;24.90;;;11.30;99.90;;;;;;6215748;23;20503;-79
2021/12/16 04:46:10;;;;;;;34.93;25.80;;;11.20;99.90;;;;;;6215609;23;20624;-79
2021/12/16 04:48:41;;;;;;;35.00;25.03;;;11.00;99.90;;;;;;6215449;23;20164;-80
2021/12/16 04:51:08;;;;;;;35.27;25.20;;;10.90;99.90;;;;;;6215162;23;20176;-78
2021/12/16 04:53:35;;;;;;;36.30;24.93;;;10.80;99.90;;;;;;6215518;23;20207;-79
2021/12/16 04:56:02;;;;;;;35.73;24.70;;;10.80;99.90;;;;;;6215771;23;20167;-79
2021/12/16 04:58:29;;;;;;;36.50;25.67;;;10.70;99.90;;;;;;6216123;23;20210;-79
2021/12/16 05:00:57;;;;;;;38.13;26.83;;;10.70;99.90;;;;;;6215841;23;20620;-79
2021/12/16 05:03:25;;;;;;;37.43;26.10;;;10.80;99.90;;;;;;6215548;23;20220;-79
2021/12/16 05:05:55;;;;;;;41.00;26.10;;;10.90;99.90;;;;;;6216194;23;20164;-79
2021/12/16 05:08:23;;;;;;;37.87;25.77;;;11.00;99.90;;;;;;6215449;23;20164;-79
2021/12/16 05:10:54;;;;;;;35.80;24.60;;;10.90;99.90;;;;;;6215586;23;20223;-81
2021/12/16 05:13:24;;;;;;;40.15;31.08;;;10.70;99.90;;;;;;6214669;23;20514;-81
2021/12/16 05:15:52;;;;;;;35.50;26.73;;;10.60;99.90;;;;;;6215357;23;20255;-82
2021/12/16 05:18:23;;;;;;;41.40;27.07;;;10.60;99.90;;;;;;6215256;23;20620;-79
2021/12/16 05:20:52;;;;;;;36.83;25.80;;;10.60;99.90;;;;;;6215621;23;20226;-79
2021/12/16 05:28:53;;;;;;;56.17;35.43;;;10.80;99.90;;;;;;6215448;23;20237;-82
2021/12/16 05:31:23;;;;;;;39.63;27.17;;;10.90;99.90;;;;;;6215725;23;20180;-78
2021/12/16 05:33:50;;;;;;;41.30;26.23;;;10.90;99.90;;;;;;6214986;23;20669;-78
2021/12/16 05:36:18;;;;;;;41.83;25.90;;;11.00;99.90;;;;;;6215616;23;20612;-76
2021/12/16 05:38:46;;;;;;;38.40;26.37;;;11.10;99.90;;;;;;6215649;23;20168;-80
2021/12/16 05:41:18;;;;;;;37.97;26.23;;;11.10;99.90;;;;;;6215473;23;20491;-77
2021/12/16 05:43:46;;;;;;;37.17;25.63;;;11.20;99.90;;;;;;6215678;23;20167;-76
2021/12/16 05:46:15;;;;;;;38.87;25.80;;;11.10;99.90;;;;;;6215408;23;20190;-78
2021/12/16 05:48:45;;;;;;;45.73;28.30;;;11.10;99.90;;;;;;6215446;23;20169;-78
2021/12/16 05:51:15;;;;;;;36.27;23.90;;;11.20;99.90;;;;;;6215691;23;20170;-78
2021/12/16 05:53:44;;;;;;;32.60;24.10;;;11.20;99.90;;;;;;6215894;23;20197;-85
2021/12/16 05:56:12;;;;;;;33.70;24.23;;;11.30;99.90;;;;;;6214371;23;20173;-81
2021/12/16 05:58:41;;;;;;;36.40;25.47;;;11.30;99.90;;;;;;6215774;23;20169;-80
2021/12/16 06:01:12;;;;;;;38.13;25.50;;;11.30;99.90;;;;;;6214697;23;20190;-84
2021/12/16 06:03:40;;;;;;;35.47;25.67;;;11.30;99.90;;;;;;6215727;23;20171;-81
2021/12/16 06:06:10;;;;;;;42.83;27.57;;;11.30;99.90;;;;;;6215688;23;20177;-80
2021/12/16 06:08:37;;;;;;;37.53;26.00;;;11.40;99.90;;;;;;6215085;23;20177;-76
2021/12/16 06:11:16;;;;;;;40.67;25.63;;;11.40;99.90;;;;;;6215279;23;20204;-83
2021/12/16 06:13:58;;;;;;;32.77;25.73;;;11.20;99.90;;;;;;6215784;23;20232;-83
2021/12/16 06:27:28;;;;;;;39.55;31.80;;;11.40;99.90;;;;;;6213926;23;20390;-82
2021/12/16 06:29:57;;;;;;;44.40;28.30;;;11.70;99.90;;;;;;6215389;23;20238;-83
2021/12/16 06:32:25;;;;;;;36.27;26.20;;;11.50;99.90;;;;;;6215291;23;20165;-81
2021/12/16 06:34:54;;;;;;;38.80;25.77;;;11.30;99.90;;;;;;6215685;23;20249;-76
2021/12/16 06:37:24;;;;;;;38.97;24.60;;;11.20;99.90;;;;;;6215597;23;20588;-84
2021/12/16 06:39:57;;;;;;;38.23;25.40;;;11.30;99.90;;;;;;6217232;23;20497;-82
2021/12/16 06:42:25;;;;;;;37.77;26.90;;;11.30;99.90;;;;;;6217212;23;20165;-80
2021/12/16 06:44:53;;;;;;;41.53;26.97;;;11.40;99.90;;;;;;6216842;23;20176;-82
2021/12/16 06:47:26;;;;;;;39.77;27.20;;;11.50;99.90;;;;;;6217598;23;20168;-81
2021/12/16 06:49:55;;;;;;;42.93;27.60;;;11.40;99.90;;;;;;6217348;23;20164;-76
2021/12/16 06:52:29;;;;;;;37.23;27.03;;;11.40;99.90;;;;;;6217261;23;20164;-77
2021/12/16 06:55:07;;;;;;;40.40;26.57;;;11.30;99.90;;;;;;6217551;23;20325;-79
2021/12/16 06:57:43;;;;;;;41.30;26.57;;;11.20;99.90;;;;;;6217129;23;20204;-78
2021/12/16 07:00:18;;;;;;;37.90;25.47;;;11.10;99.90;;;;;;6216996;23;20175;-79
2021/12/16 07:02:58;;;;;;;36.67;26.40;;;11.00;99.90;;;;;;6217273;23;20165;-75
2021/12/16 07:05:28;;;;;;;38.63;24.47;;;11.10;99.90;;;;;;6217454;23;20168;-76
2021/12/16 07:07:58;;;;;;;33.27;24.53;;;11.30;99.90;;;;;;6217524;23;20172;-81
2021/12/16 07:10:26;;;;;;;38.63;26.10;;;11.40;99.90;;;;;;6216812;23;20200;-82
2021/12/16 07:12:58;;;;;;;39.13;25.03;;;11.40;99.90;;;;;;6216865;23;20187;-82
2021/12/16 07:15:30;;;;;;;41.13;26.00;;;11.40;99.90;;;;;;6216737;23;20180;-77
2021/12/16 07:17:59;;;;;;;34.73;25.33;;;11.30;99.90;;;;;;6216626;23;20594;-79
2021/12/16 07:20:28;;;;;;;38.33;25.13;;;11.30;99.90;;;;;;6216419;23;20164;-76
2021/12/16 07:22:57;;;;;;;37.03;26.33;;;11.30;99.90;;;;;;6216834;23;20193;-75
2021/12/16 07:25:23;;;;;;;38.37;26.57;;;11.40;99.90;;;;;;6216575;23;20192;-75
2021/12/16 07:27:52;;;;;;;41.50;26.73;;;11.40;99.90;;;;;;6216371;23;20181;-80
2021/12/16 07:30:22;;;;;;;42.23;26.53;;;11.40;99.90;;;;;;6216922;23;20163;-78
2021/12/16 07:32:52;;;;;;;39.13;26.27;;;11.40;99.90;;;;;;6216578;23;20649;-80
2021/12/16 07:35:25;;;;;;;34.60;25.03;;;11.40;99.90;;;;;;6217069;23;20506;-84
2021/12/16 07:37:54;;;;;;;43.13;27.33;;;11.40;99.90;;;;;;6216599;23;20581;-81
2021/12/16 07:40:25;;;;;;;35.30;25.17;;;11.40;99.90;;;;;;6217047;23;20177;-82
2021/12/16 07:43:10;;;;;;;36.27;25.37;;;11.40;99.90;;;;;;6216798;23;20201;-80
2021/12/16 07:45:42;;;;;;;43.23;26.77;;;11.50;99.90;;;;;;6216694;23;20192;-80
2021/12/16 07:48:11;;;;;;;42.17;25.77;;;11.30;99.90;;;;;;6216879;23;20176;-81
2021/12/16 07:50:41;;;;;;;46.00;27.17;;;11.30;99.90;;;;;;6217249;23;20172;-79
2021/12/16 07:53:10;;;;;;;39.30;26.63;;;11.20;99.90;;;;;;6217087;23;20198;-84
2021/12/16 07:55:39;;;;;;;42.13;27.20;;;11.10;99.90;;;;;;6217035;23;20611;-82
2021/12/16 07:58:12;;;;;;;40.13;27.33;;;11.10;99.90;;;;;;6217078;23;20169;-82
2021/12/16 08:00:41;;;;;;;39.53;27.33;;;11.20;99.90;;;;;;6217183;23;20164;-82
2021/12/16 08:03:11;;;;;;;34.87;26.20;;;11.20;99.90;;;;;;6216764;23;20169;-84
2021/12/16 08:05:46;;;;;;;36.17;25.30;;;11.30;99.90;;;;;;6217354;23;20173;-86
2021/12/16 08:08:17;;;;;;;41.70;28.93;;;11.20;99.90;;;;;;6217052;23;20212;-84
2021/12/16 08:10:44;;;;;;;43.43;28.30;;;11.20;99.90;;;;;;6217064;23;20208;-79
2021/12/16 08:13:13;;;;;;;41.53;27.13;;;11.30;99.90;;;;;;6216565;23;20197;-83
2021/12/16 08:15:46;;;;;;;39.10;27.90;;;11.20;99.90;;;;;;6216645;23;20539;-85
2021/12/16 08:18:13;;;;;;;40.57;27.93;;;11.30;99.90;;;;;;6216769;23;20188;-84
2021/12/16 08:20:42;;;;;;;45.23;30.10;;;11.30;99.90;;;;;;6216642;23;20172;-81
2021/12/16 08:23:11;;;;;;;44.47;29.63;;;11.30;99.90;;;;;;6216570;23;20173;-85
2021/12/16 08:25:39;;;;;;;40.83;28.03;;;11.40;99.90;;;;;;6216682;23;20194;-82
2021/12/16 08:28:07;;;;;;;40.00;29.53;;;11.40;99.90;;;;;;6216215;23;20184;-84
2021/12/16 08:30:39;;;;;;;39.50;27.73;;;11.50;99.90;;;;;;6216864;23;20184;-84
2021/12/16 08:33:09;;;;;;;43.73;27.97;;;11.60;99.90;;;;;;6216231;23;20189;-87
2021/12/16 08:35:43;;;;;;;43.30;26.60;;;11.70;99.90;;;;;;6216986;23;20193;-85
2021/12/16 08:38:11;;;;;;;42.10;27.13;;;11.70;99.90;;;;;;6216791;23;20201;-81
2021/12/16 08:40:41;;;;;;;38.07;25.87;;;11.70;99.90;;;;;;6216307;23;20172;-80
2021/12/16 08:43:10;;;;;;;36.63;26.43;;;11.70;99.90;;;;;;6216288;23;20181;-81
2021/12/16 08:45:38;;;;;;;40.93;28.17;;;11.80;99.90;;;;;;6216490;23;20170;-83
2021/12/16 08:48:07;;;;;;;43.30;28.03;;;11.70;99.90;;;;;;6216093;23;20170;-82
2021/12/16 08:50:38;;;;;;;41.60;27.57;;;11.70;99.90;;;;;;6216352;23;20176;-80
2021/12/16 08:53:09;;;;;;;40.63;27.40;;;11.70;99.90;;;;;;6216219;23;20264;-83
2021/12/16 08:55:40;;;;;;;43.17;28.47;;;11.80;99.90;;;;;;6215989;23;20188;-85
2021/12/16 08:58:07;;;;;;;42.57;29.13;;;11.80;99.90;;;;;;6216435;23;20165;-78
2021/12/16 09:00:44;;;;;;;40.60;27.53;;;11.80;99.90;;;;;;6217420;23;20173;-83
2021/12/16 09:03:11;;;;;;;41.33;28.43;;;11.80;99.90;;;;;;6215946;23;20663;-78
2021/12/16 09:05:40;;;;;;;42.10;26.40;;;11.70;99.90;;;;;;6216074;23;20176;-80
2021/12/16 09:08:08;;;;;;;38.83;25.97;;;11.70;99.90;;;;;;6215956;23;20177;-76
2021/12/16 09:10:37;;;;;;;46.73;27.33;;;11.80;99.90;;;;;;6215591;23;20213;-86
2021/12/16 09:13:09;;;;;;;43.40;27.60;;;11.70;99.90;;;;;;6215055;23;20485;-76
2021/12/16 09:15:44;;;;;;;37.73;27.73;;;11.80;99.90;;;;;;6216011;23;20193;-76
2021/12/16 09:18:13;;;;;;;43.07;28.13;;;11.70;99.90;;;;;;6215141;23;20168;-78
2021/12/16 09:20:40;;;;;;;39.80;26.37;;;11.80;99.90;;;;;;6214515;23;20167;-78
2021/12/16 09:23:10;;;;;;;41.27;25.90;;;11.90;99.90;;;;;;6215330;23;20171;-79
2021/12/16 09:25:39;;;;;;;46.33;28.17;;;11.90;99.90;;;;;;6214400;23;20192;-76
2021/12/16 09:28:06;;;;;;;35.53;26.73;;;11.90;99.90;;;;;;6215159;23;20174;-76
2021/12/16 09:30:34;;;;;;;47.60;28.43;;;12.00;99.90;;;;;;6214941;23;20176;-78
2021/12/16 09:33:04;;;;;;;39.97;27.37;;;12.10;99.90;;;;;;6214688;23;20170;-76
2021/12/16 09:35:34;;;;;;;43.83;27.37;;;12.10;99.90;;;;;;6215643;23;20265;-75
2021/12/16 09:38:02;;;;;;;41.33;28.07;;;12.20;99.90;;;;;;6215386;23;20453;-76
2021/12/16 09:40:35;;;;;;;42.97;28.80;;;12.20;99.90;;;;;;6214302;23;20173;-75
2021/12/16 09:43:04;;;;;;;47.43;28.53;;;11.90;99.90;;;;;;6214979;23;20177;-77
2021/12/16 09:45:31;;;;;;;40.90;29.23;;;12.00;99.90;;;;;;6214658;23;20284;-77
2021/12/16 09:47:58;;;;;;;38.97;28.93;;;12.00;99.90;;;;;;6214952;23;20170;-81
2021/12/16 09:50:29;;;;;;;45.37;29.43;;;12.00;99.90;;;;;;6214776;23;20601;-78
2021/12/16 09:52:57;;;;;;;44.47;29.63;;;12.10;99.90;;;;;;6214691;23;20172;-78
2021/12/16 09:55:24;;;;;;;41.80;28.13;;;11.80;99.90;;;;;;6214268;23;20205;-77
2021/12/16 09:57:52;;;;;;;38.73;28.57;;;11.80;99.90;;;;;;6214883;23;20177;-78
2021/12/16 10:00:23;;;;;;;40.80;29.80;;;11.70;99.90;;;;;;6214794;23;20167;-77
2021/12/16 10:02:51;;;;;;;42.20;29.23;;;11.90;99.90;;;;;;6215679;23;20176;-78
2021/12/16 10:05:18;;;;;;;39.80;28.27;;;12.00;99.90;;;;;;6214832;23;20486;-77
2021/12/16 10:07:46;;;;;;;44.53;30.10;;;11.90;99.90;;;;;;6214108;23;20626;-77
2021/12/16 10:10:15;;;;;;;39.17;29.33;;;11.90;99.90;;;;;;6214238;23;20205;-78
2021/12/16 10:12:45;;;;;;;39.67;29.07;;;11.90;99.90;;;;;;6214474;23;20165;-77
2021/12/16 10:18:03;;;;;;;42.00;28.27;;;12.10;99.90;;;;;;6214401;23;20185;-80
2021/12/16 10:20:34;;;;;;;37.47;28.93;;;12.30;99.90;;;;;;6214471;23;20170;-76
2021/12/16 10:23:03;;;;;;;41.60;29.17;;;12.40;99.90;;;;;;6213838;23;20166;-75
2021/12/16 10:25:36;;;;;;;41.90;29.57;;;12.30;99.90;;;;;;6214532;23;20221;-77
2021/12/16 10:28:07;;;;;;;42.80;29.77;;;12.40;99.90;;;;;;6214295;23;20177;-79
2021/12/16 10:30:45;;;;;;;46.33;30.00;;;12.40;99.90;;;;;;6215018;23;20189;-75
2021/12/16 10:33:22;;;;;;;41.70;29.80;;;12.20;99.90;;;;;;6214421;23;20173;-75
2021/12/16 10:35:50;;;;;;;49.23;30.53;;;12.30;99.90;;;;;;6214825;23;20185;-76
2021/12/16 10:38:20;;;;;;;39.83;28.40;;;12.40;99.90;;;;;;6214690;23;20610;-76
2021/12/16 10:40:50;;;;;;;41.80;28.30;;;12.40;99.90;;;;;;6214686;23;20174;-76
2021/12/16 10:43:26;;;;;;;41.73;28.60;;;12.30;99.90;;;;;;6215012;23;20166;-77
2021/12/16 10:45:57;;;;;;;38.60;27.63;;;12.50;99.90;;;;;;6214911;23;20181;-76
2021/12/16 10:48:28;;;;;;;49.27;30.07;;;12.60;99.90;;;;;;6214882;23;20173;-76
2021/12/16 10:51:13;;;;;;;38.07;28.80;;;12.50;99.90;;;;;;6214502;23;20184;-77
2021/12/16 10:54:01;;;;;;;45.33;28.63;;;12.40;99.90;;;;;;6214666;23;20681;-78
2021/12/16 10:56:31;;;;;;;41.53;29.43;;;12.30;99.90;;;;;;6214318;23;20217;-76
2021/12/16 10:59:01;;;;;;;42.37;29.70;;;12.40;99.90;;;;;;6214721;23;20189;-79
2021/12/16 11:01:40;;;;;;;45.43;29.33;;;12.50;99.90;;;;;;6214249;23;20169;-76
2021/12/16 11:04:11;;;;;;;41.80;28.53;;;12.60;99.90;;;;;;6215209;23;20166;-81
2021/12/16 11:06:44;;;;;;;38.70;27.93;;;12.40;99.90;;;;;;6213420;23;20615;-79
2021/12/16 11:09:41;;;;;;;39.27;29.77;;;12.30;99.90;;;;;;6214824;23;20186;-84
2021/12/16 11:12:12;;;;;;;43.43;30.10;;;12.30;99.90;;;;;;6195885;23;20185;-81
2021/12/16 11:14:44;;;;;;;39.20;28.53;;;12.40;99.90;;;;;;6214619;23;20537;-80
2021/12/16 11:17:15;;;;;;;36.60;28.30;;;12.50;99.90;;;;;;6214867;23;20174;-79
2021/12/16 11:19:46;;;;;;;39.10;28.43;;;12.70;99.90;;;;;;6215229;23;20171;-84
2021/12/16 11:22:18;;;;;;;39.93;29.03;;;12.60;99.90;;;;;;6214749;23;20174;-82
2021/12/16 11:24:45;;;;;;;44.85;33.75;;;12.70;99.90;;;;;;6215233;23;20399;-79
2021/12/16 11:27:36;;;;;;;41.90;29.67;;;12.70;99.90;;;;;;6216626;23;20611;-82
2021/12/16 11:30:41;;;;;;;41.33;28.93;;;12.60;99.90;;;;;;6208597;23;20221;-84
2021/12/16 11:33:19;;;;;;;42.00;30.50;;;12.60;99.90;;;;;;6216401;23;20645;-84
2021/12/16 11:35:52;;;;;;;40.17;29.03;;;12.80;99.90;;;;;;6219022;23;20194;-79
2021/12/16 11:38:26;;;;;;;41.97;29.27;;;12.90;99.90;;;;;;6221767;23;20177;-79
2021/12/16 11:41:16;;;;;;;48.57;29.40;;;12.90;99.90;;;;;;6219443;23;20171;-83
2021/12/16 11:43:51;;;;;;;41.17;29.53;;;12.80;99.90;;;;;;6216912;23;20163;-82
2021/12/16 11:46:23;;;;;;;40.90;28.40;;;12.70;99.90;;;;;;6216811;23;20166;-82
2021/12/16 11:48:59;;;;;;;39.30;28.33;;;12.60;99.90;;;;;;6216345;23;20538;-81
2021/12/16 11:51:34;;;;;;;40.13;28.40;;;12.50;99.90;;;;;;6216761;23;20498;-86
2021/12/16 11:54:04;;;;;;;40.23;28.37;;;12.60;99.90;;;;;;6216788;23;20177;-79
2021/12/16 11:56:44;;;;;;;39.97;29.10;;;12.80;99.90;;;;;;6216729;23;20175;-81
2021/12/16 11:59:12;;;;;;;35.27;28.13;;;12.70;99.90;;;;;;6216499;23;20471;-81
2021/12/16 12:01:40;;;;;;;39.90;28.60;;;12.60;99.90;;;;;;6216501;23;20177;-79
2021/12/16 12:04:11;;;;;;;42.40;29.73;;;12.70;99.90;;;;;;6216429;23;20170;-82
2021/12/16 12:06:40;;;;;;;40.50;28.50;;;12.80;99.90;;;;;;6216603;23;20196;-81
2021/12/16 12:09:10;;;;;;;37.60;27.87;;;12.90;99.90;;;;;;6217668;23;20190;-83
2021/12/16 12:11:43;;;;;;;37.57;26.80;;;12.80;99.90;;;;;;6216773;23;20230;-78
2021/12/16 12:14:13;;;;;;;38.63;27.20;;;12.90;99.90;;;;;;6215547;23;20173;-79
2021/12/16 12:16:46;;;;;;;38.73;28.43;;;12.90;99.90;;;;;;6216754;23;20166;-86
2021/12/16 12:19:18;;;;;;;32.23;26.30;;;12.60;99.90;;;;;;6216237;23;20178;-83
2021/12/16 12:21:48;;;;;;;40.63;25.53;;;12.30;99.90;;;;;;6216753;23;20174;-78
2021/12/16 12:24:18;;;;;;;34.63;25.60;;;12.50;99.90;;;;;;6216116;23;20277;-79
2021/12/16 12:26:52;;;;;;;33.07;26.60;;;12.60;99.90;;;;;;6216522;23;20656;-81
2021/12/16 12:29:25;;;;;;;39.03;26.40;;;12.70;99.90;;;;;;6216119;23;20166;-84
2021/12/16 12:31:54;;;;;;;36.97;26.37;;;12.80;99.90;;;;;;6216430;23;20217;-79
2021/12/16 12:34:23;;;;;;;34.07;26.57;;;12.60;99.90;;;;;;6215503;23;20200;-80
2021/12/16 12:36:54;;;;;;;38.30;26.70;;;12.50;99.90;;;;;;6215906;23;20178;-83
2021/12/16 12:39:23;;;;;;;35.50;25.43;;;12.50;99.90;;;;;;6215811;23;20167;-85
2021/12/16 12:41:52;;;;;;;36.20;26.07;;;12.70;99.90;;;;;;6216482;23;20163;-82
2021/12/16 12:44:22;;;;;;;38.20;26.97;;;12.80;99.90;;;;;;6215690;23;20181;-85
2021/12/16 12:46:52;;;;;;;39.60;27.00;;;12.80;99.90;;;;;;6216229;23;20170;-83
2021/12/16 12:49:28;;;;;;;36.17;25.47;;;12.90;99.90;;;;;;6216015;23;20167;-80
2021/12/16 12:52:04;;;;;;;32.37;26.03;;;12.90;99.90;;;;;;6216444;23;20170;-78
2021/12/16 12:54:32;;;;;;;38.50;26.27;;;13.00;99.90;;;;;;6216030;23;20186;-82
2021/12/16 12:57:22;;;;;;;36.90;27.07;;;12.90;99.90;;;;;;6216025;23;20185;-77
2021/12/16 12:59:51;;;;;;;37.93;25.67;;;12.70;99.90;;;;;;6215973;23;20170;-78
2021/12/16 13:02:20;;;;;;;37.53;25.93;;;12.80;99.90;;;;;;6215421;23;20163;-78
2021/12/16 13:04:53;;;;;;;37.27;25.17;;;12.80;99.90;;;;;;6214168;23;20225;-76
2021/12/16 13:07:30;;;;;;;34.43;25.07;;;12.90;99.90;;;;;;6214043;23;20171;-78
2021/12/16 13:10:04;;;;;;;33.23;24.73;;;12.80;99.90;;;;;;6216014;23;20162;-82
2021/12/16 13:12:40;;;;;;;34.17;25.60;;;12.90;99.90;;;;;;6215482;23;20198;-82
2021/12/16 13:15:37;;;;;;;37.50;25.57;;;13.10;99.90;;;;;;6210567;23;20201;-81
2021/12/16 13:23:40;;;;;;;37.33;27.70;;;12.80;99.90;;;;;;6215296;23;20169;-77
2021/12/16 13:29:03;;;;;;;42.17;27.37;;;12.80;99.90;;;;;;6215761;23;20167;-84
2021/12/16 13:31:39;;;;;;;36.17;28.30;;;12.80;99.90;;;;;;6215554;23;20194;-81
2021/12/16 13:34:26;;;;;;;41.23;27.93;;;12.80;99.90;;;;;;6215730;23;20181;-83
2021/12/16 13:36:57;;;;;;;40.40;27.83;;;12.90;99.90;;;;;;6215968;23;20209;-81
2021/12/16 13:39:29;;;;;;;37.37;28.50;;;12.90;99.90;;;;;;6215707;23;20167;-80
2021/12/16 13:42:00;;;;;;;43.13;28.13;;;12.80;99.90;;;;;;6214787;23;20629;-78
2021/12/16 13:44:58;;;;;;;37.73;26.50;;;12.60;99.90;;;;;;6214717;23;20170;-80
2021/12/16 14:05:47;;;;;;;40.03;27.80;;;12.40;99.90;;;;;;6197897;23;20246;-85
2021/12/16 14:08:31;;;;;;;40.83;29.30;;;12.50;99.90;;;;;;6215797;23;20173;-79
2021/12/16 14:11:04;;;;;;;39.93;27.83;;;12.60;99.90;;;;;;6212575;23;20545;-78
2021/12/16 14:16:31;;;;;;;41.87;28.70;;;12.70;99.90;;;;;;6216420;23;20596;-83
2021/12/16 14:35:59;;;;;;;44.93;30.10;;;12.50;99.90;;;;;;6201766;23;20217;-83
2021/12/16 14:38:53;;;;;;;42.07;30.47;;;12.60;99.90;;;;;;6214129;23;20502;-84
2021/12/16 14:41:44;;;;;;;42.93;30.83;;;12.50;99.90;;;;;;6214652;23;20178;-83
2021/12/16 14:45:12;;;;;;;43.70;30.93;;;12.40;99.90;;;;;;6214208;23;20177;-81
2021/12/16 14:49:57;;;;;;;43.63;30.87;;;12.30;99.90;;;;;;6214883;23;20232;-84
2021/12/16 14:52:32;;;;;;;39.13;28.93;;;12.10;99.90;;;;;;6215579;23;20170;-81
2021/12/16 14:55:07;;;;;;;44.97;29.87;;;12.20;99.90;;;;;;6215509;23;20560;-82
2021/12/16 14:57:40;;;;;;;43.70;29.77;;;12.20;99.90;;;;;;6215350;23;20198;-82
2021/12/16 15:00:20;;;;;;;49.90;30.93;;;12.10;99.90;;;;;;6217872;23;20186;-82
2021/12/16 15:02:49;;;;;;;48.70;30.77;;;12.10;99.90;;;;;;6217244;23;20182;-83
2021/12/16 15:05:27;;;;;;;53.23;31.13;;;12.10;99.90;;;;;;6217498;23;20696;-83
2021/12/16 15:07:55;;;;;;;50.08;34.95;;;12.00;99.90;;;;;;6217251;23;20893;-82
2021/12/16 15:10:24;;;;;;;55.20;33.57;;;12.00;99.90;;;;;;6217529;23;20205;-84
2021/12/16 15:13:04;;;;;;;51.97;33.27;;;11.90;99.90;;;;;;6216297;23;20205;-85
2021/12/16 15:15:40;;;;;;;52.80;33.13;;;11.70;99.90;;;;;;6216750;23;20198;-83
2021/12/16 15:40:57;;;;;;;47.77;31.00;;;11.10;99.90;;;;;;6216305;23;20175;-80
2021/12/16 15:43:31;;;;;;;48.73;32.50;;;11.10;99.90;;;;;;6216894;23;20170;-78
2021/12/16 15:46:03;;;;;;;55.27;32.57;;;11.10;99.90;;;;;;6216452;23;20223;-79
2021/12/16 15:48:32;;;;;;;57.93;37.07;;;10.80;99.90;;;;;;6215651;23;20183;-80
2021/12/16 15:51:04;;;;;;;64.93;36.37;;;10.90;99.90;;;;;;6216635;23;20196;-79
2021/12/16 15:53:34;;;;;;;52.23;37.37;;;10.90;99.90;;;;;;6216533;23;20243;-80
2021/12/16 15:56:06;;;;;;;65.43;36.93;;;10.80;99.90;;;;;;6215645;23;20681;-80
2021/12/16 15:58:35;;;;;;;60.70;38.03;;;10.80;99.90;;;;;;6216382;23;20172;-79
2021/12/16 16:01:07;;;;;;;56.97;38.13;;;10.70;99.90;;;;;;6215850;23;20165;-80